Time;durP1;ratioP1;P1;durP2;ratioP2;P2;SDS_P1;SDS_P2;PMS_P1;PMS_P2;Temp;Humidity;BMP_temperature;BMP_pressure;BME280_temperature;BME280_humidity;BME280_pressure;Samples;Min_cycle;Max_cycle;Signal;HPM_P1;HPM_P2
2022/03/03 06:14:08;;;;;;;12.17;8.23;;;;;;;;;;5030734;28;20716;-90
2022/03/03 06:16:35;;;;;;;11.50;7.93;;;;;;;;;;5035132;28;20191;-89
2022/03/03 06:19:03;;;;;;;9.97;7.03;;;;;;;;;;5034839;28;20202;-89
2022/03/03 06:21:30;;;;;;;11.03;7.97;;;;;;;;;;5034290;28;20310;-89
2022/03/03 06:23:57;;;;;;;14.80;9.50;;;;;;;;;;5034862;28;20256;-89
2022/03/03 06:26:25;;;;;;;13.33;8.80;;;;;;;;;;5034048;28;20306;-89
2022/03/03 06:28:53;;;;;;;15.07;8.90;;;;;;;;;;5034409;28;20264;-90
2022/03/03 06:31:22;;;;;;;13.67;8.63;;;;;;;;;;5034688;28;20250;-91
2022/03/03 06:33:49;;;;;;;15.50;10.00;;;;;;;;;;5034237;28;20600;-89
2022/03/03 06:36:16;;;;;;;12.33;7.97;;;;;;;;;;5034955;28;20234;-89
2022/03/03 06:38:43;;;;;;;15.47;8.10;;;;;;;;;;5034582;28;20219;-89
2022/03/03 06:41:11;;;;;;;15.77;9.40;;;;;;;;;;5034481;28;20310;-89
2022/03/03 06:43:39;;;;;;;16.00;9.07;;;;;;;;;;5034308;28;20206;-89
2022/03/03 06:46:07;;;;;;;15.87;10.93;;;;;;;;;;5034776;28;20345;-89
2022/03/03 06:48:35;;;;;;;15.93;9.73;;;;;;;;;;5034537;28;20294;-89
2022/03/03 06:51:04;;;;;;;16.63;10.27;;;;;;;;;;5034228;28;20210;-89
2022/03/03 06:53:34;;;;;;;16.00;10.53;;;;;;;;;;5034558;28;20252;-89
2022/03/03 06:56:04;;;;;;;18.57;10.43;;;;;;;;;;5033201;28;20295;-92
2022/03/03 06:58:31;;;;;;;16.03;9.37;;;;;;;;;;5033320;28;20702;-90
2022/03/03 07:00:59;;;;;;;14.83;8.97;;;;;;;;;;5033909;28;20226;-89
2022/03/03 07:03:27;;;;;;;12.77;9.07;;;;;;;;;;5034373;28;20206;-89
2022/03/03 07:05:55;;;;;;;14.53;9.30;;;;;;;;;;5034076;28;20207;-90
2022/03/03 07:08:23;;;;;;;14.30;10.07;;;;;;;;;;5029618;28;20211;-90
2022/03/03 07:10:50;;;;;;;15.17;10.00;;;;;;;;;;5032164;28;20233;-89
2022/03/03 07:13:18;;;;;;;16.80;10.37;;;;;;;;;;5032302;28;20280;-90
2022/03/03 07:15:50;;;;;;;19.63;10.43;;;;;;;;;;5033256;28;20207;-89
2022/03/03 07:18:18;;;;;;;18.27;9.60;;;;;;;;;;5033226;28;20214;-89
2022/03/03 07:20:50;;;;;;;15.20;10.27;;;;;;;;;;5039282;28;20226;-89
2022/03/03 07:23:25;;;;;;;16.80;10.13;;;;;;;;;;5033666;28;20253;-89
2022/03/03 07:25:56;;;;;;;20.50;10.70;;;;;;;;;;5033423;28;20206;-89
2022/03/03 07:28:24;;;;;;;17.00;10.33;;;;;;;;;;5033840;28;20203;-90
2022/03/03 07:30:51;;;;;;;16.17;10.03;;;;;;;;;;5033920;28;20260;-89
2022/03/03 07:33:21;;;;;;;15.57;10.80;;;;;;;;;;5034791;28;20214;-89
2022/03/03 07:35:51;;;;;;;17.77;10.00;;;;;;;;;;5036238;28;20234;-92
2022/03/03 07:38:21;;;;;;;13.27;10.07;;;;;;;;;;5032712;28;20206;-91
2022/03/03 07:40:49;;;;;;;19.63;11.17;;;;;;;;;;5039786;28;20237;-90
2022/03/03 07:43:17;;;;;;;17.87;11.47;;;;;;;;;;5036005;28;20253;-91
2022/03/03 07:45:45;;;;;;;17.70;12.07;;;;;;;;;;5033276;28;20276;-89
2022/03/03 07:48:13;;;;;;;20.37;11.73;;;;;;;;;;5033483;28;20828;-89
2022/03/03 07:50:41;;;;;;;18.10;11.90;;;;;;;;;;5033482;28;20206;-89
2022/03/03 07:53:10;;;;;;;18.63;11.57;;;;;;;;;;5034008;28;20297;-92
2022/03/03 07:55:43;;;;;;;17.70;12.47;;;;;;;;;;5033601;28;20242;-89
2022/03/03 07:58:13;;;;;;;19.63;12.07;;;;;;;;;;5032611;28;20213;-88
2022/03/03 08:00:44;;;;;;;20.30;12.83;;;;;;;;;;5033061;28;20222;-89
2022/03/03 08:03:13;;;;;;;22.40;12.03;;;;;;;;;;5033652;28;20301;-89
2022/03/03 08:05:41;;;;;;;21.13;12.70;;;;;;;;;;5032998;28;20720;-88
2022/03/03 08:08:10;;;;;;;20.00;12.53;;;;;;;;;;5031682;28;20207;-92
2022/03/03 08:10:40;;;;;;;16.43;12.00;;;;;;;;;;5032864;28;20229;-89
2022/03/03 08:13:07;;;;;;;15.90;11.97;;;;;;;;;;5033454;28;20594;-89
2022/03/03 08:15:38;;;;;;;15.47;11.67;;;;;;;;;;5033525;28;20564;-91
2022/03/03 08:18:06;;;;;;;20.47;12.20;;;;;;;;;;5033629;28;20651;-91
2022/03/03 08:20:33;;;;;;;16.73;12.23;;;;;;;;;;5030875;28;20218;-90
2022/03/03 08:23:01;;;;;;;22.67;12.47;;;;;;;;;;5028850;28;20253;-89
2022/03/03 08:25:29;;;;;;;17.03;12.43;;;;;;;;;;5029973;28;20268;-89
2022/03/03 08:27:58;;;;;;;17.77;12.47;;;;;;;;;;5029559;28;20210;-90
2022/03/03 08:30:25;;;;;;;19.97;12.03;;;;;;;;;;5029051;28;20559;-90
2022/03/03 08:32:58;;;;;;;19.53;13.10;;;;;;;;;;5025885;28;20229;-90
2022/03/03 08:35:28;;;;;;;19.67;13.23;;;;;;;;;;5025737;28;20695;-90
2022/03/03 08:37:59;;;;;;;20.77;12.70;;;;;;;;;;5025165;28;20211;-90
2022/03/03 08:40:26;;;;;;;18.77;13.63;;;;;;;;;;5028276;28;20202;-90
2022/03/03 08:42:56;;;;;;;20.00;12.17;;;;;;;;;;5028307;28;20287;-90
2022/03/03 08:45:28;;;;;;;19.20;13.03;;;;;;;;;;5028988;28;20210;-89
2022/03/03 08:47:57;;;;;;;18.23;11.93;;;;;;;;;;5026997;28;20233;-90
2022/03/03 08:50:27;;;;;;;17.93;12.57;;;;;;;;;;5030118;28;20199;-90
2022/03/03 08:52:55;;;;;;;20.00;13.37;;;;;;;;;;5028822;28;20227;-89
2022/03/03 08:55:22;;;;;;;17.50;13.03;;;;;;;;;;5029550;28;20214;-89
2022/03/03 08:57:49;;;;;;;17.60;13.07;;;;;;;;;;5029880;28;20210;-90
2022/03/03 09:00:18;;;;;;;23.37;12.87;;;;;;;;;;5030132;28;20202;-89
2022/03/03 09:02:48;;;;;;;18.27;11.57;;;;;;;;;;5029307;28;20258;-89
2022/03/03 09:05:15;;;;;;;19.10;12.97;;;;;;;;;;5023336;28;20268;-89
2022/03/03 09:07:42;;;;;;;22.87;13.57;;;;;;;;;;5029465;28;20287;-89
2022/03/03 09:10:16;;;;;;;19.40;12.87;;;;;;;;;;5022062;28;20211;-89
2022/03/03 09:12:43;;;;;;;18.83;12.67;;;;;;;;;;5020140;28;20226;-89
2022/03/03 09:15:12;;;;;;;19.20;11.67;;;;;;;;;;5024787;28;20203;-91
2022/03/03 09:17:39;;;;;;;18.57;12.10;;;;;;;;;;5016128;28;20306;-89
2022/03/03 09:20:11;;;;;;;16.87;12.73;;;;;;;;;;5025121;28;20264;-90
2022/03/03 09:22:39;;;;;;;19.43;11.87;;;;;;;;;;5024409;28;20218;-89
2022/03/03 09:25:07;;;;;;;15.90;12.23;;;;;;;;;;5025990;28;20252;-91
2022/03/03 09:27:34;;;;;;;18.20;12.00;;;;;;;;;;5022483;28;20199;-89
2022/03/03 09:30:02;;;;;;;19.57;12.73;;;;;;;;;;5024641;28;20206;-89
2022/03/03 09:32:29;;;;;;;19.23;12.33;;;;;;;;;;5024802;28;20324;-90
2022/03/03 09:34:56;;;;;;;17.37;12.40;;;;;;;;;;5025029;28;20894;-89
2022/03/03 09:37:25;;;;;;;20.27;12.93;;;;;;;;;;5023483;28;20254;-89
2022/03/03 09:39:52;;;;;;;18.10;12.30;;;;;;;;;;5022696;28;20288;-88
2022/03/03 09:42:19;;;;;;;20.10;12.73;;;;;;;;;;5024766;28;20239;-90
2022/03/03 09:44:47;;;;;;;19.83;12.80;;;;;;;;;;5024385;28;20210;-89
2022/03/03 09:47:17;;;;;;;18.63;13.03;;;;;;;;;;5023346;28;20206;-89
2022/03/03 09:49:44;;;;;;;19.27;13.10;;;;;;;;;;5016246;28;20238;-89
2022/03/03 09:52:15;;;;;;;20.97;13.30;;;;;;;;;;5024616;28;20214;-89
2022/03/03 09:54:44;;;;;;;17.57;12.30;;;;;;;;;;5024586;28;20265;-89
2022/03/03 09:57:12;;;;;;;19.17;12.33;;;;;;;;;;5017578;28;20207;-90
2022/03/03 09:59:39;;;;;;;20.47;12.73;;;;;;;;;;5024330;28;20206;-89
2022/03/03 10:02:07;;;;;;;20.83;13.57;;;;;;;;;;5027100;28;20309;-90
2022/03/03 10:04:35;;;;;;;18.03;12.67;;;;;;;;;;5011189;28;20310;-88
2022/03/03 10:07:06;;;;;;;18.57;12.97;;;;;;;;;;5032190;28;20576;-88
2022/03/03 10:09:33;;;;;;;19.13;11.83;;;;;;;;;;5032888;28;20561;-89
2022/03/03 10:12:12;;;;;;;19.30;12.30;;;;;;;;;;5032284;28;20240;-90
2022/03/03 10:14:44;;;;;;;20.80;12.20;;;;;;;;;;5024816;28;20314;-92
2022/03/03 10:17:11;;;;;;;18.23;11.87;;;;;;;;;;5023944;28;20203;-89
2022/03/03 10:19:51;;;;;;;16.37;11.97;;;;;;;;;;5032590;28;20207;-91
2022/03/03 10:22:18;;;;;;;19.47;12.33;;;;;;;;;;5031818;28;20664;-92
2022/03/03 10:24:46;;;;;;;18.33;12.80;;;;;;;;;;5029956;28;20215;-91
2022/03/03 10:27:14;;;;;;;20.73;12.70;;;;;;;;;;5030741;28;20214;-91
2022/03/03 10:29:48;;;;;;;15.60;12.17;;;;;;;;;;5026382;28;20256;-94
2022/03/03 10:32:23;;;;;;;19.43;12.73;;;;;;;;;;5027642;28;20251;-93
2022/03/03 10:34:53;;;;;;;22.83;12.77;;;;;;;;;;5028185;28;20301;-93
2022/03/03 10:37:22;;;;;;;19.03;12.43;;;;;;;;;;5027727;28;20210;-92
2022/03/03 10:39:50;;;;;;;20.00;13.00;;;;;;;;;;5027234;28;20207;-91
2022/03/03 10:42:21;;;;;;;18.33;12.13;;;;;;;;;;5027349;28;20222;-93
2022/03/03 10:44:48;;;;;;;21.10;12.50;;;;;;;;;;5027806;28;20199;-90
2022/03/03 10:47:16;;;;;;;16.43;12.10;;;;;;;;;;5028606;28;20276;-91
2022/03/03 10:49:44;;;;;;;17.80;12.70;;;;;;;;;;5031237;28;20270;-91
2022/03/03 10:52:13;;;;;;;18.30;12.83;;;;;;;;;;5031935;28;20218;-91
2022/03/03 10:54:54;;;;;;;17.80;12.67;;;;;;;;;;5031807;28;20211;-91
2022/03/03 10:57:32;;;;;;;17.23;12.17;;;;;;;;;;5031533;28;20211;-91
2022/03/03 11:00:00;;;;;;;18.57;12.47;;;;;;;;;;5030148;28;20988;-91
2022/03/03 11:02:28;;;;;;;16.23;11.77;;;;;;;;;;5029963;28;20675;-91
2022/03/03 11:04:56;;;;;;;19.40;11.97;;;;;;;;;;5031454;28;20215;-93
2022/03/03 11:07:24;;;;;;;15.87;11.37;;;;;;;;;;5031053;28;20281;-90
2022/03/03 11:09:51;;;;;;;16.73;12.30;;;;;;;;;;5029945;28;20698;-90
2022/03/03 11:12:19;;;;;;;16.47;12.03;;;;;;;;;;5029282;28;20879;-92
2022/03/03 11:14:48;;;;;;;17.50;12.03;;;;;;;;;;5030412;28;20233;-92
2022/03/03 11:17:15;;;;;;;18.03;12.20;;;;;;;;;;5030479;28;20276;-91
2022/03/03 11:19:43;;;;;;;17.23;11.40;;;;;;;;;;5031711;28;20659;-92
2022/03/03 11:22:10;;;;;;;15.50;11.07;;;;;;;;;;5033035;28;20230;-93
2022/03/03 11:24:39;;;;;;;14.87;11.47;;;;;;;;;;5033345;28;20848;-92
2022/03/03 11:27:08;;;;;;;19.23;12.60;;;;;;;;;;5032247;28;20229;-92
2022/03/03 11:29:38;;;;;;;20.00;12.60;;;;;;;;;;5032505;28;20246;-94
2022/03/03 11:32:08;;;;;;;19.73;11.70;;;;;;;;;;5031677;28;20695;-91
2022/03/03 11:34:57;;;;;;;17.07;11.77;;;;;;;;;;5030932;28;20207;-92
2022/03/03 11:37:29;;;;;;;17.73;11.93;;;;;;;;;;5030664;28;20206;-92
2022/03/03 11:39:57;;;;;;;17.47;11.90;;;;;;;;;;5033037;28;20261;-92
2022/03/03 11:42:26;;;;;;;16.07;11.23;;;;;;;;;;5031388;28;20698;-92
2022/03/03 11:44:55;;;;;;;22.63;11.20;;;;;;;;;;5030576;28;20224;-93
2022/03/03 11:47:42;;;;;;;16.27;10.87;;;;;;;;;;5031011;28;20202;-93
2022/03/03 11:50:16;;;;;;;16.50;10.67;;;;;;;;;;5031685;28;20204;-92
2022/03/03 11:52:44;;;;;;;20.87;11.67;;;;;;;;;;5031467;28;20260;-92
2022/03/03 11:55:27;;;;;;;16.80;11.33;;;;;;;;;;5030888;28;20214;-92
2022/03/03 11:57:57;;;;;;;18.07;12.10;;;;;;;;;;5031749;28;20210;-92
2022/03/03 12:00:52;;;;;;;16.73;11.13;;;;;;;;;;5032271;28;20220;-93
2022/03/03 12:03:22;;;;;;;15.70;11.07;;;;;;;;;;5031463;28;20286;-95
2022/03/03 12:06:04;;;;;;;20.30;11.30;;;;;;;;;;5031630;28;20611;-93
2022/03/03 12:08:32;;;;;;;17.73;11.70;;;;;;;;;;5030820;28;20662;-92
2022/03/03 12:11:09;;;;;;;17.33;11.23;;;;;;;;;;5030714;28;20209;-92
2022/03/03 16:33:52;;;;;;;13.00;8.80;;;;;;;;;;4999191;28;20687;-91
2022/03/03 16:36:19;;;;;;;17.53;9.63;;;;;;;;;;5012015;28;20206;-92
2022/03/03 16:38:48;;;;;;;14.60;9.47;;;;;;;;;;5005567;28;20211;-91
2022/03/03 16:41:15;;;;;;;14.10;9.70;;;;;;;;;;4988747;28;20216;-90
2022/03/03 16:43:42;;;;;;;17.23;9.30;;;;;;;;;;4982467;28;20286;-91
2022/03/03 16:46:09;;;;;;;13.33;8.70;;;;;;;;;;4987422;28;20649;-92
2022/03/03 16:48:37;;;;;;;14.73;9.47;;;;;;;;;;4982077;28;20226;-92
2022/03/03 16:51:05;;;;;;;12.40;8.77;;;;;;;;;;4980652;28;20274;-92
2022/03/03 16:53:33;;;;;;;13.30;9.33;;;;;;;;;;4988783;28;20652;-92
2022/03/03 16:56:00;;;;;;;13.73;8.77;;;;;;;;;;4989175;28;20315;-92
2022/03/03 16:58:27;;;;;;;12.90;8.50;;;;;;;;;;4979909;28;20200;-92
2022/03/03 17:00:54;;;;;;;14.10;8.20;;;;;;;;;;4981478;28;20231;-91
2022/03/03 17:03:22;;;;;;;13.37;7.90;;;;;;;;;;4988698;28;20256;-92
2022/03/03 17:05:51;;;;;;;12.47;8.10;;;;;;;;;;4980037;28;20458;-92
2022/03/03 17:08:20;;;;;;;12.20;9.03;;;;;;;;;;4988193;28;20212;-92
2022/03/03 17:10:47;;;;;;;14.77;8.13;;;;;;;;;;4988850;28;20227;-92
2022/03/03 17:13:15;;;;;;;15.23;7.80;;;;;;;;;;4995815;28;20730;-92
2022/03/03 17:15:42;;;;;;;10.03;7.60;;;;;;;;;;4983978;28;20315;-92
2022/03/03 17:18:10;;;;;;;12.27;8.10;;;;;;;;;;4982368;28;20207;-92
2022/03/03 17:20:37;;;;;;;11.03;8.20;;;;;;;;;;4988965;28;20232;-92
2022/03/03 17:23:04;;;;;;;12.07;8.10;;;;;;;;;;4988723;28;20311;-92
2022/03/03 17:25:33;;;;;;;11.10;8.30;;;;;;;;;;4976716;28;20204;-92
2022/03/03 17:28:00;;;;;;;12.63;9.40;;;;;;;;;;4988040;28;20294;-92
2022/03/03 17:30:27;;;;;;;11.67;7.77;;;;;;;;;;4988956;28;20644;-92
2022/03/03 17:32:54;;;;;;;10.67;7.37;;;;;;;;;;4989034;28;20290;-92
2022/03/03 17:35:22;;;;;;;10.87;7.57;;;;;;;;;;4975466;28;20262;-93
2022/03/03 17:37:49;;;;;;;9.83;7.90;;;;;;;;;;4986205;28;20212;-92
2022/03/03 17:40:18;;;;;;;13.57;8.03;;;;;;;;;;4988583;28;20295;-92
2022/03/03 17:42:47;;;;;;;10.80;7.23;;;;;;;;;;4986004;28;20285;-92
2022/03/03 17:45:14;;;;;;;10.93;7.00;;;;;;;;;;4985849;28;20208;-92
2022/03/03 17:47:41;;;;;;;10.47;7.83;;;;;;;;;;4988179;28;20631;-92
2022/03/03 17:50:09;;;;;;;12.77;8.47;;;;;;;;;;4989239;28;20247;-92
2022/03/03 17:52:36;;;;;;;13.10;9.00;;;;;;;;;;4979112;28;20204;-91
2022/03/03 17:55:03;;;;;;;13.80;9.33;;;;;;;;;;4987671;28;20258;-92
2022/03/03 17:57:31;;;;;;;12.43;8.23;;;;;;;;;;4989894;28;20636;-92
2022/03/03 18:00:00;;;;;;;15.23;9.07;;;;;;;;;;4985435;28;20278;-92
2022/03/03 18:02:27;;;;;;;11.83;8.27;;;;;;;;;;4986221;28;20311;-92
2022/03/03 18:04:55;;;;;;;10.97;8.47;;;;;;;;;;4988350;28;20546;-92
2022/03/03 18:07:22;;;;;;;9.53;6.80;;;;;;;;;;4988159;28;20204;-92
2022/03/03 18:09:51;;;;;;;11.43;7.77;;;;;;;;;;4979362;28;20286;-91
2022/03/03 18:12:20;;;;;;;10.50;7.00;;;;;;;;;;4988202;28;20278;-92
2022/03/03 18:14:47;;;;;;;21.17;12.77;;;;;;;;;;4988824;28;20211;-91
2022/03/03 18:17:16;;;;;;;12.57;8.00;;;;;;;;;;4988788;28;20204;-92
2022/03/03 18:19:44;;;;;;;9.53;6.63;;;;;;;;;;4977205;28;20327;-91
2022/03/03 18:22:11;;;;;;;7.57;5.80;;;;;;;;;;4991253;28;20263;-92
2022/03/03 18:24:39;;;;;;;7.80;5.43;;;;;;;;;;4992452;28;20258;-92
2022/03/03 18:27:10;;;;;;;12.77;7.70;;;;;;;;;;4990059;28;20216;-91
2022/03/03 18:29:37;;;;;;;8.73;6.10;;;;;;;;;;4988334;28;20242;-92
2022/03/03 18:32:05;;;;;;;7.73;6.03;;;;;;;;;;4992731;28;20216;-92
2022/03/03 18:34:35;;;;;;;10.63;6.13;;;;;;;;;;4990903;28;20294;-90
2022/03/03 18:37:02;;;;;;;8.60;6.13;;;;;;;;;;4983495;28;20211;-92
2022/03/03 18:39:31;;;;;;;12.03;7.40;;;;;;;;;;4988334;28;20723;-91
2022/03/03 18:41:59;;;;;;;15.33;10.13;;;;;;;;;;4989905;28;20224;-92
2022/03/03 18:44:26;;;;;;;15.40;8.60;;;;;;;;;;4980674;28;20220;-91
2022/03/03 18:46:53;;;;;;;10.87;6.73;;;;;;;;;;4990788;28;20271;-90
2022/03/03 18:49:21;;;;;;;9.93;6.90;;;;;;;;;;4994687;28;20263;-90
2022/03/03 18:51:50;;;;;;;10.03;6.83;;;;;;;;;;4993883;28;20212;-89
2022/03/03 18:54:18;;;;;;;9.57;7.03;;;;;;;;;;4991924;28;20208;-90
2022/03/03 18:56:47;;;;;;;10.03;6.60;;;;;;;;;;4993325;28;20595;-90
2022/03/03 18:59:22;;;;;;;8.97;5.93;;;;;;;;;;4996059;28;20219;-91
2022/03/03 19:01:49;;;;;;;10.63;7.37;;;;;;;;;;4990957;28;20298;-90
2022/03/03 19:04:39;;;;;;;9.20;6.27;;;;;;;;;;4988843;28;20220;-91
2022/03/03 19:07:15;;;;;;;10.67;6.90;;;;;;;;;;4989098;28;20247;-90
2022/03/03 19:09:42;;;;;;;11.63;7.20;;;;;;;;;;4992751;28;20306;-90
2022/03/03 19:12:26;;;;;;;11.40;6.40;;;;;;;;;;4989506;28;20200;-90
2022/03/03 19:14:53;;;;;;;9.27;6.03;;;;;;;;;;4989459;28;20204;-90
2022/03/03 19:17:20;;;;;;;11.47;6.57;;;;;;;;;;4991788;28;20212;-90
2022/03/03 19:19:48;;;;;;;10.13;6.33;;;;;;;;;;4992172;28;20228;-92
2022/03/03 19:22:17;;;;;;;10.20;6.07;;;;;;;;;;4986319;28;20203;-91
2022/03/03 19:24:45;;;;;;;10.63;6.63;;;;;;;;;;4992722;28;20215;-89
2022/03/03 19:27:13;;;;;;;10.03;6.47;;;;;;;;;;4993849;28;20212;-89
2022/03/03 19:29:41;;;;;;;15.10;6.23;;;;;;;;;;4984040;28;20278;-91
2022/03/03 19:34:53;;;;;;;9.90;6.00;;;;;;;;;;4993690;28;20784;-92
2022/03/03 19:37:23;;;;;;;8.77;6.37;;;;;;;;;;4987732;28;20271;-90
2022/03/03 19:39:50;;;;;;;9.73;6.10;;;;;;;;;;4991141;28;20228;-92
2022/03/03 19:42:17;;;;;;;11.93;7.30;;;;;;;;;;4993724;28;20215;-92
2022/03/03 19:44:45;;;;;;;9.53;6.30;;;;;;;;;;4993182;28;20642;-91
2022/03/03 19:47:12;;;;;;;9.43;6.17;;;;;;;;;;4989917;28;20215;-91
2022/03/03 19:49:39;;;;;;;11.73;6.90;;;;;;;;;;4992535;28;20228;-90
2022/03/03 19:52:07;;;;;;;11.37;6.77;;;;;;;;;;4993345;28;20219;-90
2022/03/03 19:54:36;;;;;;;9.53;5.90;;;;;;;;;;4991624;28;20262;-90
2022/03/03 19:57:03;;;;;;;8.67;5.90;;;;;;;;;;4993233;28;20204;-90
2022/03/03 19:59:30;;;;;;;10.77;6.53;;;;;;;;;;4993214;28;20236;-90
2022/03/03 20:01:57;;;;;;;8.43;5.80;;;;;;;;;;4989688;28;20303;-91
2022/03/03 20:04:25;;;;;;;10.70;6.47;;;;;;;;;;4991008;28;20274;-92
2022/03/03 20:06:52;;;;;;;10.60;6.10;;;;;;;;;;4993334;28;20259;-90
2022/03/03 20:12:06;;;;;;;10.27;6.77;;;;;;;;;;4982730;28;20299;-92
2022/03/03 20:14:34;;;;;;;9.53;6.30;;;;;;;;;;4987884;28;20196;-91
2022/03/03 20:17:02;;;;;;;9.87;6.70;;;;;;;;;;4992806;28;20220;-89
2022/03/03 20:19:29;;;;;;;11.03;7.70;;;;;;;;;;4993749;28;20239;-90
2022/03/03 20:21:56;;;;;;;11.13;6.90;;;;;;;;;;5004493;28;20277;-90
2022/03/03 20:24:23;;;;;;;11.57;7.50;;;;;;;;;;4987176;28;20221;-91
2022/03/03 20:26:51;;;;;;;12.67;6.83;;;;;;;;;;5001080;28;20258;-92
2022/03/03 20:29:19;;;;;;;13.03;6.50;;;;;;;;;;4993786;28;20212;-92
2022/03/03 20:31:47;;;;;;;11.17;7.23;;;;;;;;;;4991948;28;20302;-90
2022/03/03 20:34:15;;;;;;;10.27;6.90;;;;;;;;;;4990915;28;20263;-92
2022/03/03 20:36:42;;;;;;;10.43;7.93;;;;;;;;;;4992555;28;20300;-92
2022/03/03 20:39:09;;;;;;;12.13;9.10;;;;;;;;;;4993358;28;20619;-90
2022/03/03 20:41:36;;;;;;;12.37;8.40;;;;;;;;;;4993302;28;20612;-92
2022/03/03 20:44:11;;;;;;;15.50;8.40;;;;;;;;;;4992794;28;20895;-92
2022/03/03 20:46:40;;;;;;;13.40;9.47;;;;;;;;;;5005704;28;20281;-93
2022/03/03 20:49:08;;;;;;;11.97;8.13;;;;;;;;;;4981867;28;20648;-92
2022/03/03 20:51:38;;;;;;;12.33;8.13;;;;;;;;;;4992553;28;20266;-92
2022/03/03 20:54:08;;;;;;;14.03;9.57;;;;;;;;;;4973861;28;20209;-91
2022/03/03 20:56:36;;;;;;;14.10;8.73;;;;;;;;;;5003301;28;20231;-92
2022/03/03 20:59:03;;;;;;;11.80;8.83;;;;;;;;;;4984903;28;20250;-92
2022/03/03 21:01:30;;;;;;;11.07;7.67;;;;;;;;;;4992281;28;20207;-91
2022/03/03 21:04:00;;;;;;;10.53;7.40;;;;;;;;;;4991399;28;20708;-91
2022/03/03 21:06:28;;;;;;;13.50;7.47;;;;;;;;;;4988071;28;20211;-92
2022/03/03 21:08:55;;;;;;;8.33;6.47;;;;;;;;;;4993524;28;20258;-90
2022/03/03 21:11:23;;;;;;;8.80;6.73;;;;;;;;;;4993030;28;20779;-89
2022/03/03 21:13:50;;;;;;;14.27;9.97;;;;;;;;;;4993269;28;20214;-90
2022/03/03 21:16:18;;;;;;;10.73;7.57;;;;;;;;;;4993467;28;20200;-89
2022/03/03 21:18:45;;;;;;;13.10;7.97;;;;;;;;;;4993334;28;20216;-89
2022/03/03 21:21:15;;;;;;;10.83;6.87;;;;;;;;;;4984479;28;20224;-91
2022/03/03 21:23:42;;;;;;;10.70;6.80;;;;;;;;;;4983644;28;20281;-91
2022/03/03 21:26:09;;;;;;;11.10;7.53;;;;;;;;;;4992486;28;20208;-91
2022/03/03 21:28:39;;;;;;;10.50;6.97;;;;;;;;;;4991789;28;20255;-91
2022/03/03 21:31:06;;;;;;;12.10;7.67;;;;;;;;;;4984758;28;20278;-91
2022/03/03 21:33:33;;;;;;;11.00;7.50;;;;;;;;;;4991912;28;20270;-91
2022/03/03 21:36:01;;;;;;;13.30;7.67;;;;;;;;;;4992467;28;20254;-91
2022/03/03 21:38:29;;;;;;;11.10;6.83;;;;;;;;;;4990406;28;20220;-90
2022/03/03 21:40:57;;;;;;;13.87;7.00;;;;;;;;;;4987335;28;20236;-90
2022/03/03 21:43:24;;;;;;;11.00;7.30;;;;;;;;;;4990152;28;20556;-93
2022/03/03 21:45:52;;;;;;;11.93;8.27;;;;;;;;;;4984013;28;20286;-90
2022/03/03 21:48:20;;;;;;;12.17;7.07;;;;;;;;;;4992007;28;20208;-90
2022/03/03 21:50:47;;;;;;;13.97;8.23;;;;;;;;;;4985997;28;20228;-92
2022/03/03 21:53:15;;;;;;;13.77;7.87;;;;;;;;;;4979025;28;20228;-91
2022/03/03 21:55:44;;;;;;;13.10;7.63;;;;;;;;;;4991859;28;20227;-91
2022/03/03 21:58:11;;;;;;;9.23;6.67;;;;;;;;;;4987736;28;20619;-88
2022/03/03 22:00:39;;;;;;;13.13;7.90;;;;;;;;;;4992220;28;20258;-88
2022/03/03 22:03:07;;;;;;;12.17;7.40;;;;;;;;;;4995549;28;20563;-89
2022/03/03 22:05:35;;;;;;;11.60;7.87;;;;;;;;;;4999596;28;20668;-90
2022/03/03 22:08:03;;;;;;;11.63;7.20;;;;;;;;;;4991298;28;20208;-90
2022/03/03 22:10:30;;;;;;;12.10;7.20;;;;;;;;;;4996480;28;20234;-90
2022/03/03 22:12:59;;;;;;;10.50;7.03;;;;;;;;;;4996715;28;20212;-90
2022/03/03 22:15:27;;;;;;;12.20;8.03;;;;;;;;;;4996092;28;20629;-90
2022/03/03 22:17:54;;;;;;;11.47;7.67;;;;;;;;;;4996083;28;20199;-92
2022/03/03 22:20:21;;;;;;;11.17;6.87;;;;;;;;;;4995988;28;20224;-91
2022/03/03 22:22:49;;;;;;;12.93;7.43;;;;;;;;;;4990031;28;20259;-90
2022/03/03 22:25:16;;;;;;;11.30;6.87;;;;;;;;;;4987156;28;20224;-90
2022/03/03 22:27:44;;;;;;;13.97;7.50;;;;;;;;;;4995709;28;20335;-90
2022/03/03 22:30:14;;;;;;;11.33;6.97;;;;;;;;;;4995524;28;20227;-90
2022/03/03 22:32:41;;;;;;;10.80;6.57;;;;;;;;;;4992084;28;20219;-89
2022/03/03 22:35:11;;;;;;;7.20;5.80;;;;;;;;;;4995737;28;20200;-90
2022/03/03 22:37:38;;;;;;;8.97;6.47;;;;;;;;;;4995714;28;20204;-89
2022/03/03 22:40:06;;;;;;;11.47;6.90;;;;;;;;;;4995241;28;20227;-89
2022/03/03 22:42:33;;;;;;;9.17;6.37;;;;;;;;;;4994986;28;20231;-91
2022/03/03 22:45:01;;;;;;;8.97;6.57;;;;;;;;;;4994642;28;20759;-90
2022/03/03 22:47:29;;;;;;;13.27;8.27;;;;;;;;;;4995550;28;20208;-90
2022/03/03 22:52:41;;;;;;;11.27;7.10;;;;;;;;;;4992440;28;20202;-90
2022/03/03 22:55:10;;;;;;;9.17;5.93;;;;;;;;;;4995513;28;20207;-91
2022/03/03 22:57:37;;;;;;;10.30;6.73;;;;;;;;;;4995587;28;20219;-90
2022/03/03 23:00:06;;;;;;;12.67;7.13;;;;;;;;;;4994655;28;20224;-89
2022/03/03 23:05:01;;;;;;;9.50;6.10;;;;;;;;;;4995333;28;20573;-91
2022/03/03 23:05:21;;;;;;;10.80;6.17;;;;;;;;;;4994296;28;20302;-91
2022/03/03 23:07:48;;;;;;;10.70;6.93;;;;;;;;;;4984619;28;20798;-91
2022/03/03 23:10:15;;;;;;;8.97;6.10;;;;;;;;;;4994932;28;20232;-92
2022/03/03 23:12:43;;;;;;;9.63;5.57;;;;;;;;;;4994669;28;20212;-92
2022/03/03 23:15:10;;;;;;;11.00;5.83;;;;;;;;;;4995387;28;20290;-91
2022/03/03 23:17:39;;;;;;;10.37;6.60;;;;;;;;;;4987688;28;20232;-91
2022/03/03 23:20:09;;;;;;;8.73;6.00;;;;;;;;;;4986834;28;20232;-91
2022/03/03 23:22:37;;;;;;;9.83;6.83;;;;;;;;;;4994677;28;20355;-91
2022/03/03 23:25:05;;;;;;;11.73;7.33;;;;;;;;;;4993087;28;20271;-91
2022/03/03 23:27:32;;;;;;;10.50;7.63;;;;;;;;;;4990987;28;20722;-90
2022/03/03 23:29:59;;;;;;;12.03;7.70;;;;;;;;;;4993468;28;20723;-91
2022/03/03 23:32:27;;;;;;;17.17;8.20;;;;;;;;;;4994391;28;20235;-90
2022/03/03 23:34:56;;;;;;;12.40;7.67;;;;;;;;;;4987226;28;20258;-91
2022/03/03 23:37:23;;;;;;;10.93;6.63;;;;;;;;;;4989920;28;20208;-91
2022/03/03 23:39:50;;;;;;;12.63;7.03;;;;;;;;;;4994209;28;20231;-90
2022/03/03 23:42:18;;;;;;;15.30;7.53;;;;;;;;;;4989976;28;20204;-91
2022/03/03 23:44:45;;;;;;;10.87;7.43;;;;;;;;;;4991000;28;20314;-89
2022/03/03 23:47:12;;;;;;;9.40;6.73;;;;;;;;;;4994221;28;20224;-90
2022/03/03 23:49:40;;;;;;;9.97;6.73;;;;;;;;;;4993734;28;20704;-90
2022/03/03 23:52:09;;;;;;;10.67;6.47;;;;;;;;;;4989412;28;20297;-90
2022/03/03 23:54:36;;;;;;;12.30;7.93;;;;;;;;;;4989951;28;20699;-90
2022/03/03 23:57:04;;;;;;;12.20;7.80;;;;;;;;;;4993926;28;20200;-90
2022/03/03 23:59:32;;;;;;;10.13;7.20;;;;;;;;;;4982612;28;20231;-90
